Skip Navigation Links Skip Navigation Links

Current Weather

Starke County, Knox, Ind.

For information only: do not use for flight planning or navigation.
Latest weather
Observation time Tuesday, October 19, 2021 5:15 AM EDT
Local time Tuesday, October 19, 2021 5:32 AM EDT
Flight conditions Visual Meteorological Conditions
Winds
Wind direction Southwest (220°)
Wind speed 5 mph
Visibility 10 mi.
Sky condition
Ceiling unlimited
Sky clear
Temperature 46°F
Dewpoint 43°F
Altimeter 30.13 in.Hg
Derived measurements
Relative humidity 87%
Wind chill 44°F
Density altitude -261 ft.
Remarks
Fully automated report.
Automated weather observing station without precipitation discriminator.
METAR KOXI 190915Z AUTO 22004KT 10SM CLR 08/06 A3013 RMK AO1

Settings

Location code

InnerDrive.Weather 4.0.6770.0 Release CLR 4.0.30319.42000
Copyright ©2018 Inner Drive Technology. All rights reserved. Portions Copyright ©1986-2018 David Braverman.

Find weather

Site navigation


Skip Navigation Links

Place info

Page info

PayPal - The safer, easier way to pay online!

Return home.

Copyright ©2021 Inner Drive Technology. Purveyors of fine, hand-crafted computer software. Page printed 2021-10-19T09:32:05 UTC.